Time;durP1;ratioP1;P1;durP2;ratioP2;P2;SDS_P1;SDS_P2;PMS_P1;PMS_P2;Temp;Humidity;BMP_temperature;BMP_pressure;BME280_temperature;BME280_humidity;BME280_pressure;Samples;Min_cycle;Max_cycle;Signal;HPM_P1;HPM_P2
2022/03/06 00:02:14;;;;;;;41.83;19.73;;;;;;;4.59;100.00;100606.63;4973785;28;20457;-75
2022/03/06 00:04:40;;;;;;;40.45;21.92;;;;;;;4.62;100.00;100602.59;4971546;28;20031;-74
2022/03/06 00:07:05;;;;;;;40.25;22.23;;;;;;;4.66;100.00;100608.78;4970542;28;20046;-75
2022/03/06 00:09:31;;;;;;;30.90;17.58;;;;;;;4.59;100.00;100604.09;4988799;28;20481;-74
2022/03/06 00:11:56;;;;;;;43.60;22.05;;;;;;;4.54;100.00;100601.22;4990854;28;20072;-75
2022/03/06 00:14:23;;;;;;;34.53;20.02;;;;;;;4.48;100.00;100603.38;4991184;28;20030;-75
2022/03/06 00:16:48;;;;;;;49.55;23.40;;;;;;;4.42;100.00;100590.22;4992965;28;20465;-74
2022/03/06 00:19:14;;;;;;;60.08;25.67;;;;;;;4.49;100.00;100592.38;5010080;28;20030;-74
2022/03/06 00:21:40;;;;;;;55.70;24.10;;;;;;;4.26;100.00;100553.47;5010662;28;20084;-75
2022/03/06 00:24:06;;;;;;;56.40;26.17;;;;;;;4.43;100.00;100577.53;5011051;28;20037;-75
2022/03/06 00:26:32;;;;;;;66.55;25.40;;;;;;;4.59;100.00;100593.84;5010985;28;20052;-76
2022/03/06 00:28:57;;;;;;;42.53;20.48;;;;;;;4.50;100.00;100584.81;5010719;28;20488;-75
2022/03/06 00:31:23;;;;;;;50.13;20.65;;;;;;;4.28;100.00;100551.00;5011146;28;20034;-75
2022/03/06 00:33:49;;;;;;;59.20;25.20;;;;;;;4.52;100.00;100595.13;5011112;28;20536;-75
2022/03/06 00:36:15;;;;;;;46.55;21.05;;;;;;;4.23;100.00;100555.81;4993062;28;20034;-74
2022/03/06 00:38:41;;;;;;;37.00;19.48;;;;;;;4.21;100.00;100554.81;5010576;28;20503;-74
2022/03/06 00:41:06;;;;;;;29.88;17.45;;;;;;;4.23;100.00;100548.16;5010803;28;20025;-75
2022/03/06 00:43:32;;;;;;;39.85;20.42;;;;;;;4.43;100.00;100587.75;5010655;28;20057;-74
2022/03/06 00:45:57;;;;;;;37.47;18.08;;;;;;;4.28;100.00;100580.00;4992897;28;20541;-78
2022/03/06 00:48:23;;;;;;;36.28;19.40;;;;;;;4.31;100.00;100580.22;5010766;28;20091;-83
2022/03/06 00:50:48;;;;;;;29.90;17.60;;;;;;;4.00;100.00;100528.78;4993013;28;20030;-82
2022/03/06 00:53:14;;;;;;;39.45;20.08;;;;;;;4.34;100.00;100597.41;5010935;28;20411;-81
2022/03/06 00:55:39;;;;;;;35.78;20.58;;;;;;;4.32;100.00;100581.06;4992979;28;20034;-78
2022/03/06 00:58:05;;;;;;;35.22;19.98;;;;;;;4.23;100.00;100568.59;4992488;28;20026;-81
2022/03/06 01:00:36;;;;;;;26.90;16.40;;;;;;;4.31;100.00;100598.09;4992985;28;20067;-81
2022/03/06 01:03:05;;;;;;;33.95;19.17;;;;;;;4.14;100.00;100555.25;4992805;28;20037;-82
2022/03/06 01:05:31;;;;;;;42.58;20.42;;;;;;;4.35;100.00;100584.72;4973622;28;20030;-81
2022/03/06 01:07:57;;;;;;;40.28;22.50;;;;;;;4.28;100.00;100574.00;4988128;28;20520;-83
2022/03/06 01:10:23;;;;;;;40.20;20.52;;;;;;;4.21;100.00;100565.94;4972363;28;20610;-85
2022/03/06 01:12:48;;;;;;;30.23;18.45;;;;;;;4.36;100.00;100583.94;4972284;28;20034;-83
2022/03/06 01:15:14;;;;;;;38.03;20.00;;;;;;;4.25;100.00;100586.56;4971865;28;20035;-84
2022/03/06 01:17:39;;;;;;;34.63;18.60;;;;;;;4.27;100.00;100587.56;4971996;28;20052;-79
2022/03/06 01:20:06;;;;;;;30.80;18.80;;;;;;;4.15;100.00;100562.09;4988108;28;20516;-80
2022/03/06 01:22:32;;;;;;;31.85;18.65;;;;;;;4.23;100.00;100577.94;4971858;28;20046;-79
2022/03/06 01:24:57;;;;;;;29.48;18.27;;;;;;;4.14;100.00;100557.81;4973924;28;20085;-81
2022/03/06 01:27:23;;;;;;;29.27;18.92;;;;;;;4.14;100.00;100574.00;4991897;28;20049;-80
2022/03/06 01:29:48;;;;;;;33.20;17.73;;;;;;;4.12;100.00;100569.59;4991772;28;20036;-80
2022/03/06 01:32:14;;;;;;;39.92;19.40;;;;;;;4.11;100.00;100578.94;4991798;28;20034;-80
2022/03/06 01:34:39;;;;;;;46.08;20.52;;;;;;;4.13;100.00;100584.13;4991836;28;20050;-80
2022/03/06 01:37:05;;;;;;;33.38;20.70;;;;;;;4.10;100.00;100573.69;4975328;28;20092;-80
2022/03/06 01:39:31;;;;;;;27.67;17.23;;;;;;;4.07;100.00;100582.06;4978888;28;20117;-81
2022/03/06 01:41:56;;;;;;;34.70;17.65;;;;;;;3.76;100.00;100545.97;4973183;28;20031;-78
2022/03/06 01:44:22;;;;;;;40.60;19.20;;;;;;;3.78;100.00;100559.75;4973295;28;20083;-79
2022/03/06 01:46:48;;;;;;;38.58;18.23;;;;;;;3.81;100.00;100555.69;4974357;28;20029;-79
2022/03/06 01:49:15;;;;;;;34.13;18.90;;;;;;;3.93;100.00;100578.59;4973314;28;20026;-79
2022/03/06 01:51:41;;;;;;;38.78;19.55;;;;;;;3.75;100.00;100549.31;4972916;28;20038;-78
2022/03/06 01:54:07;;;;;;;32.22;16.52;;;;;;;3.85;100.00;100578.13;4972810;28;20035;-79
2022/03/06 01:56:33;;;;;;;28.95;15.73;;;;;;;3.65;100.00;100542.72;4973908;28;20579;-84
2022/03/06 01:59:01;;;;;;;38.42;18.25;;;;;;;3.77;100.00;100552.84;4992401;28;20030;-83
2022/03/06 02:01:27;;;;;;;46.92;19.58;;;;;;;3.82;100.00;100560.00;4992479;28;20034;-83
2022/03/06 02:03:52;;;;;;;36.90;17.63;;;;;;;3.86;100.00;100574.78;4992535;28;20034;-83
2022/03/06 02:06:19;;;;;;;30.80;16.50;;;;;;;3.58;100.00;100523.56;4992425;28;20026;-85
2022/03/06 02:08:46;;;;;;;30.42;15.93;;;;;;;3.86;100.00;100578.97;4991817;28;20108;-81
2022/03/06 02:11:12;;;;;;;44.90;17.73;;;;;;;3.72;100.00;100562.75;4993643;28;20080;-82
2022/03/06 02:13:38;;;;;;;39.20;15.95;;;;;;;3.78;100.00;100569.94;4992229;28;20130;-84
2022/03/06 02:16:05;;;;;;;28.13;14.25;;;;;;;3.61;100.00;100538.19;5010382;28;20572;-84
2022/03/06 02:18:31;;;;;;;34.05;15.35;;;;;;;3.75;100.00;100545.09;4993974;28;20053;-80
2022/03/06 02:20:57;;;;;;;28.83;14.98;;;;;;;3.75;100.00;100552.75;5010628;28;20049;-81
2022/03/06 02:23:22;;;;;;;29.42;15.02;;;;;;;3.68;100.00;100554.00;4993882;28;20464;-83
2022/03/06 02:25:48;;;;;;;24.70;13.85;;;;;;;3.67;100.00;100551.38;4994075;28;20431;-84
2022/03/06 02:28:14;;;;;;;24.75;14.48;;;;;;;3.79;100.00;100581.91;5009913;28;20444;-77
2022/03/06 02:30:42;;;;;;;27.73;14.43;;;;;;;3.71;100.00;100568.66;4993844;28;20069;-78
2022/03/06 02:33:12;;;;;;;30.43;15.30;;;;;;;3.76;100.00;100576.63;4993657;28;20546;-81
2022/03/06 02:35:38;;;;;;;27.80;13.80;;;;;;;3.56;100.00;100545.53;4993432;28;20042;-82
2022/03/06 02:38:05;;;;;;;30.17;15.52;;;;;;;3.61;100.00;100546.72;5010083;28;20108;-83
2022/03/06 02:40:37;;;;;;;42.53;17.35;;;;;;;3.75;100.00;100574.84;5009847;28;20033;-83
2022/03/06 02:43:02;;;;;;;28.98;15.63;;;;;;;3.71;100.00;100567.00;4993635;28;20479;-80
2022/03/06 02:45:28;;;;;;;33.67;16.70;;;;;;;3.77;100.00;100578.41;4993763;28;20026;-79
2022/03/06 02:47:56;;;;;;;37.63;17.02;;;;;;;3.64;100.00;100564.81;4995209;28;20413;-79
2022/03/06 02:50:27;;;;;;;25.52;15.55;;;;;;;3.70;100.00;100579.63;4991388;28;20034;-84
2022/03/06 02:52:53;;;;;;;28.23;14.57;;;;;;;3.53;100.00;100553.88;4991483;28;20030;-80
2022/03/06 02:55:19;;;;;;;26.20;15.55;;;;;;;3.49;100.00;100567.22;4991411;28;20058;-79
2022/03/06 02:57:45;;;;;;;29.35;15.93;;;;;;;3.55;100.00;100566.75;4991072;28;20064;-80
2022/03/06 03:00:14;;;;;;;28.20;15.30;;;;;;;3.52;100.00;100566.56;4992705;28;20034;-81
2022/03/06 03:02:40;;;;;;;22.50;13.95;;;;;;;3.58;100.00;100576.28;4991411;28;20452;-80
2022/03/06 03:05:07;;;;;;;37.75;16.63;;;;;;;3.58;100.00;100578.81;4991194;28;20035;-77
2022/03/06 03:07:32;;;;;;;28.07;16.30;;;;;;;3.47;100.00;100565.38;4990912;28;20504;-78
2022/03/06 03:09:58;;;;;;;25.20;15.63;;;;;;;3.58;100.00;100581.38;4992100;28;20039;-77
2022/03/06 03:12:24;;;;;;;23.65;14.30;;;;;;;3.27;100.00;100539.38;4992272;28;20026;-79
2022/03/06 03:14:49;;;;;;;21.33;13.23;;;;;;;3.47;100.00;100568.78;4992325;28;20034;-80
2022/03/06 03:17:15;;;;;;;24.70;14.50;;;;;;;3.49;100.00;100577.44;4990945;28;20120;-79
2022/03/06 03:19:40;;;;;;;24.63;14.57;;;;;;;3.19;100.00;100554.19;4990866;28;20117;-78
2022/03/06 03:22:06;;;;;;;26.60;15.50;;;;;;;3.33;100.00;100570.41;4992048;28;20031;-78
2022/03/06 03:24:31;;;;;;;26.25;14.27;;;;;;;3.41;100.00;100583.69;4992140;28;20046;-79
2022/03/06 03:26:57;;;;;;;23.53;13.53;;;;;;;3.33;100.00;100575.53;4990779;28;20033;-80
2022/03/06 03:29:23;;;;;;;22.93;15.20;;;;;;;3.42;100.00;100575.25;4992031;28;20464;-79
2022/03/06 03:31:48;;;;;;;31.77;16.33;;;;;;;3.55;100.00;100584.59;4992094;28;20050;-78
2022/03/06 03:34:14;;;;;;;23.05;14.40;;;;;;;3.51;100.00;100595.41;5028327;28;20124;-78
2022/03/06 03:36:40;;;;;;;21.23;13.90;;;;;;;3.41;100.00;100586.25;5028725;28;20045;-78
2022/03/06 03:39:06;;;;;;;24.88;13.85;;;;;;;3.27;100.00;100567.44;5011732;28;20037;-77
2022/03/06 03:41:31;;;;;;;21.95;14.63;;;;;;;3.37;100.00;100590.25;5012089;28;20025;-77
2022/03/06 03:43:57;;;;;;;23.02;14.25;;;;;;;3.42;100.00;100598.22;5028825;28;20048;-77
2022/03/06 03:46:22;;;;;;;21.25;12.60;;;;;;;3.34;100.00;100587.50;5011742;28;20057;-79
2022/03/06 03:48:48;;;;;;;22.00;15.37;;;;;;;3.33;100.00;100595.94;5011617;28;20045;-78
2022/03/06 03:51:13;;;;;;;21.93;14.07;;;;;;;3.38;100.00;100599.69;5011872;28;20139;-77
2022/03/06 03:53:39;;;;;;;22.00;15.67;;;;;;;3.36;100.00;100598.69;5028307;28;20099;-77
2022/03/06 03:56:05;;;;;;;23.65;14.77;;;;;;;3.16;100.00;100560.75;5012176;28;20025;-78
2022/03/06 03:58:31;;;;;;;22.97;15.70;;;;;;;3.40;100.00;100607.44;5028240;28;20120;-79
2022/03/06 04:00:57;;;;;;;20.73;13.87;;;;;;;3.04;100.00;100566.78;5007478;28;20073;-77
2022/03/06 04:03:23;;;;;;;22.07;13.97;;;;;;;3.30;100.00;100613.59;5012415;28;20067;-77
2022/03/06 04:05:49;;;;;;;21.53;13.70;;;;;;;3.20;100.00;100599.31;5000769;28;20122;-77
2022/03/06 04:08:14;;;;;;;25.80;15.30;;;;;;;3.12;100.00;100602.13;4990669;28;20050;-74
2022/03/06 04:10:40;;;;;;;23.53;15.40;;;;;;;3.18;100.00;100597.44;4991294;28;20033;-76
2022/03/06 04:13:06;;;;;;;25.93;16.33;;;;;;;3.21;100.00;100605.31;4981985;28;20034;-77
2022/03/06 04:15:31;;;;;;;28.13;16.60;;;;;;;3.27;100.00;100615.06;4991301;28;20148;-77
2022/03/06 04:17:57;;;;;;;29.42;17.17;;;;;;;3.23;100.00;100607.19;4989508;28;20485;-74
2022/03/06 04:20:23;;;;;;;29.27;16.03;;;;;;;3.36;100.00;100606.34;4990854;28;20481;-77
2022/03/06 04:22:48;;;;;;;29.37;16.83;;;;;;;3.33;100.00;100607.81;4990651;28;20025;-76
2022/03/06 04:25:14;;;;;;;26.47;17.60;;;;;;;3.22;100.00;100599.44;4990760;28;20025;-76
2022/03/06 04:27:39;;;;;;;29.30;17.40;;;;;;;3.22;100.00;100596.88;4990597;28;20058;-77
2022/03/06 04:30:06;;;;;;;40.23;18.13;;;;;;;3.32;100.00;100606.03;4991092;28;20952;-77
2022/03/06 04:32:31;;;;;;;44.83;21.97;;;;;;;3.32;100.00;100609.47;4989273;28;20052;-77
2022/03/06 04:34:57;;;;;;;49.60;22.87;;;;;;;3.36;100.00;100608.88;4990733;28;20476;-78
2022/03/06 04:37:22;;;;;;;35.57;19.60;;;;;;;3.38;100.00;100609.88;4989502;28;20085;-76
2022/03/06 04:39:48;;;;;;;48.03;20.60;;;;;;;3.39;100.00;100610.78;4990517;28;20054;-76
2022/03/06 04:42:13;;;;;;;54.40;26.30;;;;;;;3.40;100.00;100613.44;4988553;28;20393;-77
2022/03/06 04:44:39;;;;;;;61.45;26.98;;;;;;;3.50;100.00;100606.38;4984586;28;20110;-78
2022/03/06 04:47:05;;;;;;;50.22;24.67;;;;;;;3.48;100.00;100613.97;4988920;28;20034;-81
2022/03/06 04:49:31;;;;;;;55.20;26.73;;;;;;;3.49;100.00;100614.81;4989774;28;20077;-78
2022/03/06 04:51:56;;;;;;;67.87;30.63;;;;;;;3.42;100.00;100602.47;4990475;28;20034;-80
2022/03/06 04:54:22;;;;;;;61.93;29.93;;;;;;;3.46;100.00;100605.28;4986597;28;20061;-76
2022/03/06 04:56:47;;;;;;;57.10;27.70;;;;;;;3.16;100.00;100571.81;4987790;28;20097;-79
2022/03/06 04:59:13;;;;;;;63.10;27.40;;;;;;;3.36;100.00;100600.34;4985019;28;20117;-77
2022/03/06 05:01:38;;;;;;;62.70;29.90;;;;;;;3.46;100.00;100601.88;4991830;28;20022;-78
2022/03/06 05:04:04;;;;;;;61.03;29.70;;;;;;;3.29;100.00;100601.63;4993848;28;21706;-78
2022/03/06 05:06:29;;;;;;;48.47;26.70;;;;;;;3.25;100.00;100597.06;4986743;28;20477;-76
2022/03/06 05:08:55;;;;;;;71.83;29.77;;;;;;;3.23;100.00;100607.19;4973792;28;20141;-79
2022/03/06 05:11:20;;;;;;;57.20;28.93;;;;;;;3.05;100.00;100578.75;4973848;28;20058;-80
2022/03/06 05:13:46;;;;;;;51.37;26.53;;;;;;;3.22;100.00;100609.63;4973929;28;20068;-82
2022/03/06 05:16:12;;;;;;;48.60;25.73;;;;;;;3.36;100.00;100618.22;4975030;28;20063;-78
2022/03/06 05:18:37;;;;;;;62.07;26.20;;;;;;;3.29;100.00;100613.47;4992010;28;20050;-74
2022/03/06 05:21:06;;;;;;;36.78;18.80;;;;;;;3.21;100.00;100610.41;4999222;28;20104;-82
2022/03/06 05:23:31;;;;;;;41.45;22.08;;;;;;;3.01;100.00;100574.19;5006150;28;20038;-81
2022/03/06 05:25:57;;;;;;;45.15;22.35;;;;;;;3.18;100.00;100600.88;4995096;28;20049;-78
2022/03/06 05:28:23;;;;;;;55.93;27.33;;;;;;;3.23;100.00;100611.41;4994088;28;20539;-78
2022/03/06 05:30:50;;;;;;;54.57;25.80;;;;;;;3.20;100.00;100606.06;4976631;28;20066;-78
2022/03/06 05:33:15;;;;;;;50.77;21.60;;;;;;;3.12;100.00;100628.50;4997433;28;20038;-76
2022/03/06 05:35:41;;;;;;;58.23;26.73;;;;;;;2.92;100.00;100630.56;4976552;28;20045;-77
2022/03/06 05:38:07;;;;;;;46.33;22.50;;;;;;;2.83;100.00;100614.63;4976895;28;20073;-77
2022/03/06 05:40:33;;;;;;;38.53;19.80;;;;;;;2.67;100.00;100607.56;4976910;28;20477;-76
2022/03/06 05:42:58;;;;;;;38.23;20.50;;;;;;;2.69;100.00;100616.19;4994354;28;20405;-76
2022/03/06 05:45:24;;;;;;;36.50;18.77;;;;;;;2.65;100.00;100629.50;4994099;28;20485;-76
2022/03/06 05:47:49;;;;;;;41.63;21.43;;;;;;;2.65;100.00;100624.38;4993613;28;20544;-74
2022/03/06 05:50:14;;;;;;;47.07;21.27;;;;;;;2.30;100.00;100578.56;4993805;28;20038;-76
2022/03/06 05:52:40;;;;;;;59.73;24.67;;;;;;;2.28;100.00;100577.56;4994052;28;20117;-81
2022/03/06 05:55:06;;;;;;;41.43;21.77;;;;;;;2.47;100.00;100623.97;4993906;28;20117;-79
2022/03/06 05:57:32;;;;;;;61.20;24.33;;;;;;;2.45;100.00;100629.75;4993912;28;20108;-77
2022/03/06 05:59:57;;;;;;;43.43;21.03;;;;;;;2.10;100.00;100571.25;4976475;28;20030;-78
2022/03/06 06:02:23;;;;;;;43.03;20.53;;;;;;;2.36;100.00;100638.47;4993981;28;20034;-78
2022/03/06 06:04:49;;;;;;;44.30;22.07;;;;;;;2.41;100.00;100644.78;4976339;28;20061;-78
2022/03/06 06:07:15;;;;;;;40.87;20.57;;;;;;;2.48;100.00;100660.53;4993677;28;20030;-77
2022/03/06 06:09:41;;;;;;;58.00;24.30;;;;;;;2.48;100.00;100648.69;4993072;28;20041;-75
2022/03/06 06:12:07;;;;;;;64.30;24.23;;;;;;;2.49;100.00;100658.09;4976229;28;20034;-77
2022/03/06 06:14:33;;;;;;;51.63;22.47;;;;;;;2.50;100.00;100634.38;4990513;28;20117;-78
2022/03/06 06:16:58;;;;;;;42.03;20.83;;;;;;;2.47;100.00;100638.38;4993495;28;20193;-77
2022/03/06 06:19:24;;;;;;;49.17;22.83;;;;;;;2.42;100.00;100645.69;4993350;28;20031;-77
2022/03/06 06:21:50;;;;;;;42.57;22.03;;;;;;;2.47;100.00;100674.94;4976156;28;20030;-82
2022/03/06 06:24:16;;;;;;;49.27;21.87;;;;;;;2.26;100.00;100629.28;4993613;28;20037;-82
2022/03/06 06:26:47;;;;;;;57.37;23.47;;;;;;;2.48;100.00;100669.06;4993568;28;20027;-76
2022/03/06 06:29:13;;;;;;;51.20;21.43;;;;;;;2.50;100.00;100681.91;4975882;28;20045;-75
2022/03/06 06:31:39;;;;;;;49.23;23.33;;;;;;;2.47;100.00;100679.13;4975902;28;20125;-80
2022/03/06 06:34:05;;;;;;;55.37;23.43;;;;;;;2.46;100.00;100683.34;4993074;28;20065;-80
2022/03/06 06:36:30;;;;;;;47.13;22.00;;;;;;;2.45;100.00;100675.59;4993372;28;20061;-78
2022/03/06 06:38:56;;;;;;;39.20;20.07;;;;;;;2.24;100.00;100656.31;4975792;28;20052;-82
2022/03/06 06:41:21;;;;;;;49.23;22.17;;;;;;;2.38;100.00;100687.91;4975669;28;20026;-84
2022/03/06 06:43:47;;;;;;;55.53;23.03;;;;;;;2.30;100.00;100670.28;4975658;28;20023;-83
2022/03/06 06:46:13;;;;;;;41.03;21.50;;;;;;;2.24;100.00;100663.06;4975723;28;20034;-82
2022/03/06 06:48:38;;;;;;;46.33;22.33;;;;;;;2.36;100.00;100684.34;4975359;28;20480;-79
2022/03/06 06:51:04;;;;;;;55.20;23.50;;;;;;;2.33;100.00;100683.22;4975750;28;20076;-85
2022/03/06 06:53:30;;;;;;;44.93;21.57;;;;;;;2.27;100.00;100668.41;4970951;28;20035;-80
2022/03/06 06:55:57;;;;;;;34.17;16.33;;;;;;;2.08;100.00;100648.31;4975495;28;20046;-82
2022/03/06 06:58:22;;;;;;;45.43;21.80;;;;;;;2.25;100.00;100690.31;4975467;28;20038;-85
2022/03/06 07:00:48;;;;;;;53.33;23.27;;;;;;;1.99;100.00;100637.47;4935604;29;20465;-80
2022/03/06 07:03:14;;;;;;;41.00;19.87;;;;;;;2.22;100.00;100690.97;4951533;29;20568;-81
2022/03/06 07:05:39;;;;;;;50.67;21.63;;;;;;;2.08;100.00;100650.84;4951289;29;20602;-76
2022/03/06 07:08:05;;;;;;;51.70;23.10;;;;;;;2.32;100.00;100702.75;4951507;29;20047;-84
2022/03/06 07:10:30;;;;;;;41.40;18.83;;;;;;;2.23;100.00;100690.22;4951711;29;20065;-91
2022/03/06 07:12:58;;;;;;;39.43;19.37;;;;;;;2.13;100.00;100671.56;4935975;28;20043;-86
2022/03/06 07:15:32;;;;;;;48.57;20.70;;;;;;;1.83;100.00;100633.75;4951993;29;20579;-85
2022/03/06 07:17:59;;;;;;;35.60;18.63;;;;;;;2.24;100.00;100688.53;4951680;29;20102;-85
2022/03/06 07:20:25;;;;;;;47.63;22.13;;;;;;;2.12;100.00;100686.00;4951528;29;20047;-91
2022/03/06 07:22:51;;;;;;;55.03;27.70;;;;;;;2.18;100.00;100693.19;4951403;28;20038;-90
2022/03/06 07:25:16;;;;;;;107.93;49.83;;;;;;;1.88;100.00;100629.00;4935551;29;20047;-85
2022/03/06 07:27:42;;;;;;;63.67;28.97;;;;;;;2.09;100.00;100651.00;4951380;29;20529;-86
2022/03/06 07:30:08;;;;;;;147.27;64.33;;;;;;;2.23;100.00;100676.56;4951478;29;20494;-88
2022/03/06 07:32:45;;;;;;;115.80;57.30;;;;;;;1.80;100.00;100602.13;4935205;29;20581;-88
2022/03/06 07:35:11;;;;;;;174.83;92.20;;;;;;;2.20;100.00;100677.22;4951208;29;20038;-92
2022/03/06 07:37:38;;;;;;;59.83;32.80;;;;;;;2.25;100.00;100672.47;4945022;28;20622;-86
2022/03/06 07:40:04;;;;;;;68.47;37.37;;;;;;;2.02;100.00;100648.75;4974831;28;20030;-87
2022/03/06 07:42:30;;;;;;;56.00;27.53;;;;;;;2.16;100.00;100666.72;4974833;28;20031;-87
2022/03/06 07:44:56;;;;;;;54.67;25.27;;;;;;;1.97;100.00;100624.63;4974661;28;20045;-85
2022/03/06 07:47:22;;;;;;;50.63;28.17;;;;;;;2.06;100.00;100632.91;4974793;28;20026;-85
2022/03/06 07:49:48;;;;;;;44.50;19.13;;;;;;;2.29;100.00;100664.28;4974848;28;20053;-91
2022/03/06 07:52:13;;;;;;;44.03;20.10;;;;;;;2.23;100.00;100663.81;4941760;28;20420;-85
2022/03/06 07:54:39;;;;;;;34.97;22.83;;;;;;;2.26;100.00;100664.06;4974765;28;20034;-91
2022/03/06 07:57:04;;;;;;;44.17;21.10;;;;;;;2.07;100.00;100644.88;4974510;28;20045;-89
2022/03/06 07:59:30;;;;;;;38.53;21.30;;;;;;;2.20;100.00;100676.34;4974487;28;20030;-89
2022/03/06 08:01:58;;;;;;;37.90;16.70;;;;;;;2.17;100.00;100660.84;4974829;28;20034;-86
2022/03/06 08:04:24;;;;;;;43.17;18.17;;;;;;;2.09;100.00;100670.47;5009288;28;20041;-89
2022/03/06 08:06:49;;;;;;;26.77;15.40;;;;;;;2.16;100.00;100679.47;4993955;28;20037;-86
2022/03/06 08:09:16;;;;;;;37.70;17.27;;;;;;;1.70;100.00;100609.06;4993891;28;20048;-89
2022/03/06 08:11:41;;;;;;;45.10;22.07;;;;;;;2.11;100.00;100676.56;4993856;28;20030;-92
2022/03/06 08:14:07;;;;;;;27.07;15.37;;;;;;;2.08;100.00;100664.50;4969855;28;20113;-90
2022/03/06 08:16:32;;;;;;;32.50;14.97;;;;;;;2.17;100.00;100683.75;4953633;28;20043;-84
2022/03/06 08:18:58;;;;;;;25.70;15.03;;;;;;;1.94;100.00;100637.09;4953766;28;20129;-86
2022/03/06 08:21:23;;;;;;;36.67;15.43;;;;;;;2.19;100.00;100660.16;4953737;28;20840;-85
2022/03/06 08:23:51;;;;;;;47.90;18.93;;;;;;;2.25;100.00;100675.03;4953744;28;20047;-82
2022/03/06 08:26:16;;;;;;;38.97;17.20;;;;;;;2.15;100.00;100654.75;4969934;28;20030;-83
2022/03/06 08:28:42;;;;;;;21.77;11.57;;;;;;;2.05;100.00;100632.81;4953540;28;20058;-88
2022/03/06 08:31:08;;;;;;;35.30;16.70;;;;;;;2.09;100.00;100650.09;4969971;28;20030;-84
2022/03/06 08:33:35;;;;;;;39.50;17.10;;;;;;;2.01;100.00;100626.59;4953135;28;20047;-83
2022/03/06 08:36:00;;;;;;;26.60;13.93;;;;;;;2.19;100.00;100651.66;4940499;29;20087;-86
2022/03/06 08:38:27;;;;;;;24.93;13.13;;;;;;;2.11;100.00;100653.66;4940786;29;20074;-82
2022/03/06 08:40:53;;;;;;;31.13;14.10;;;;;;;2.18;100.00;100660.06;4956903;28;20469;-85
2022/03/06 08:43:18;;;;;;;24.73;13.77;;;;;;;2.18;100.00;100650.78;4956726;29;20051;-83
2022/03/06 08:45:45;;;;;;;32.27;14.57;;;;;;;2.25;100.00;100659.75;4969780;28;20038;-84
2022/03/06 08:48:11;;;;;;;25.43;13.20;;;;;;;2.19;100.00;100659.28;4995659;28;20054;-84
2022/03/06 08:50:36;;;;;;;43.63;17.60;;;;;;;2.16;100.00;100659.97;4979319;28;20038;-89
2022/03/06 08:53:03;;;;;;;28.37;12.93;;;;;;;2.31;100.00;100670.38;4995363;28;20050;-83
2022/03/06 08:55:49;;;;;;;22.43;12.63;;;;;;;2.05;100.00;100643.88;4956473;28;20039;-85
2022/03/06 08:58:14;;;;;;;22.20;11.93;;;;;;;2.34;100.00;100680.78;4940582;29;20411;-85
2022/03/06 09:00:40;;;;;;;24.57;12.30;;;;;;;2.24;100.00;100650.31;4956547;28;20402;-85
2022/03/06 09:03:07;;;;;;;32.50;13.87;;;;;;;2.25;100.00;100658.06;4956384;28;20110;-80
2022/03/06 09:05:32;;;;;;;29.40;14.07;;;;;;;2.45;100.00;100686.69;4974066;28;20106;-82
2022/03/06 09:07:58;;;;;;;27.97;12.70;;;;;;;2.42;100.00;100669.50;4959462;28;20651;-86
2022/03/06 09:10:23;;;;;;;34.50;15.10;;;;;;;2.46;100.00;100674.84;4959477;28;20039;-85
2022/03/06 09:12:49;;;;;;;38.43;16.27;;;;;;;2.23;100.00;100636.72;4943761;28;20062;-80
2022/03/06 09:15:14;;;;;;;23.37;12.77;;;;;;;2.51;100.00;100676.94;4959361;28;20470;-82
2022/03/06 09:17:40;;;;;;;33.67;13.57;;;;;;;2.61;100.00;100682.72;4958589;28;20051;-82
2022/03/06 09:20:07;;;;;;;29.80;14.13;;;;;;;2.52;100.00;100672.75;4959144;28;20082;-81
2022/03/06 09:22:33;;;;;;;28.63;13.83;;;;;;;2.48;100.00;100665.63;4955725;28;20093;-83
2022/03/06 09:24:58;;;;;;;37.17;15.57;;;;;;;2.57;100.00;100673.94;4940125;28;20035;-83
2022/03/06 09:27:24;;;;;;;33.30;15.90;;;;;;;2.46;100.00;100646.81;4956244;28;20043;-88
2022/03/06 09:29:50;;;;;;;35.93;15.40;;;;;;;2.49;100.00;100663.19;4940252;28;20569;-81
2022/03/06 09:32:15;;;;;;;23.20;13.13;;;;;;;2.48;100.00;100647.78;4960321;28;20039;-86
2022/03/06 09:34:42;;;;;;;36.93;16.50;;;;;;;2.55;100.00;100647.47;4979726;28;20457;-81
2022/03/06 09:37:08;;;;;;;19.57;11.77;;;;;;;2.42;100.00;100613.44;4979835;28;20026;-86
2022/03/06 09:39:34;;;;;;;21.50;11.57;;;;;;;2.71;100.00;100647.78;4979618;28;20516;-81
2022/03/06 09:41:59;;;;;;;19.97;11.43;;;;;;;2.65;100.00;100624.38;4997531;28;20085;-85
2022/03/06 09:44:27;;;;;;;20.00;11.50;;;;;;;2.68;100.00;100642.47;4978416;28;20456;-87
2022/03/06 09:46:55;;;;;;;27.90;13.80;;;;;;;2.64;100.00;100629.38;4976373;28;20378;-86
2022/03/06 09:49:22;;;;;;;23.55;11.23;;;;;;;2.71;100.00;100640.13;4976615;28;20031;-84
2022/03/06 09:51:47;;;;;;;24.77;12.90;;;;;;;2.85;100.00;100643.66;4976592;28;20096;-83
2022/03/06 09:54:13;;;;;;;20.30;12.40;;;;;;;2.82;100.00;100634.91;4976303;28;20038;-84
2022/03/06 09:56:41;;;;;;;22.37;12.53;;;;;;;2.51;100.00;100594.50;4976663;28;20061;-79
2022/03/06 09:59:07;;;;;;;30.53;15.67;;;;;;;2.80;100.00;100634.78;4973753;28;20030;-84
2022/03/06 10:01:32;;;;;;;28.10;15.30;;;;;;;2.89;100.00;100642.19;4976458;28;20121;-85
2022/03/06 10:03:58;;;;;;;30.80;15.53;;;;;;;2.99;100.00;100639.53;4976426;28;20030;-83
2022/03/06 10:06:26;;;;;;;20.42;11.57;;;;;;;3.04;100.00;100657.69;4993615;28;20030;-81
2022/03/06 10:09:11;;;;;;;19.17;11.27;;;;;;;2.99;100.00;100637.00;4993927;28;20030;-86
2022/03/06 10:11:38;;;;;;;17.47;10.00;;;;;;;2.90;100.00;100638.88;4976375;28;20034;-85
2022/03/06 10:14:04;;;;;;;18.67;11.97;;;;;;;2.98;100.00;100640.31;4991192;28;20120;-81
2022/03/06 10:16:30;;;;;;;18.50;10.20;;;;;;;2.99;100.00;100631.88;4975107;28;20540;-80
2022/03/06 10:18:56;;;;;;;23.10;12.80;;;;;;;2.99;100.00;100616.59;4990947;28;20585;-83
2022/03/06 10:21:26;;;;;;;20.40;11.50;;;;;;;3.06;100.00;100623.84;4974934;28;20069;-83
2022/03/06 10:24:00;;;;;;;22.75;13.32;;;;;;;2.97;100.00;100618.13;4991269;28;20101;-81
2022/03/06 10:26:28;;;;;;;19.87;12.17;;;;;;;2.76;100.00;100576.72;4974866;28;20093;-87
2022/03/06 10:28:55;;;;;;;26.83;14.13;;;;;;;3.07;100.00;100602.69;4991104;28;20078;-85
2022/03/06 10:31:24;;;;;;;22.57;11.53;;;;;;;3.01;100.00;100592.06;4968814;28;20121;-84
2022/03/06 10:34:12;;;;;;;15.13;8.90;;;;;;;3.03;100.00;100599.84;4955455;28;20039;-85
2022/03/06 10:36:43;;;;;;;16.33;9.40;;;;;;;2.96;100.00;100595.94;4971612;28;20681;-82
2022/03/06 10:39:18;;;;;;;17.03;10.80;;;;;;;2.95;100.00;100601.81;4971551;28;20043;-86
2022/03/06 10:41:49;;;;;;;18.43;11.50;;;;;;;2.95;100.00;100604.38;4955416;28;20042;-82
2022/03/06 10:44:16;;;;;;;22.03;11.50;;;;;;;2.97;100.00;100602.84;4971428;28;20509;-83
2022/03/06 10:46:57;;;;;;;34.50;20.53;;;;;;;3.10;100.00;100599.44;4954957;28;20045;-83
2022/03/06 10:49:22;;;;;;;23.80;12.53;;;;;;;3.16;100.00;100599.00;4971335;28;20031;-82
2022/03/06 10:51:52;;;;;;;17.50;11.00;;;;;;;3.02;100.00;100586.19;4959560;28;20110;-83
2022/03/06 10:54:19;;;;;;;;;;;;;;;3.14;100.00;100591.25;4952241;29;20035;-86
2022/03/06 10:56:50;;;;;;;34.00;19.67;;;;;;;2.87;100.00;100526.47;4935521;29;19997;-88
2022/03/06 10:59:21;;;;;;;29.15;16.90;;;;;;;2.89;100.00;100528.34;4951952;29;20035;-87
2022/03/06 11:01:48;;;;;;;42.13;21.13;;;;;;;3.24;100.00;100580.00;4962910;28;20126;-84
2022/03/06 11:04:16;;;;;;;22.30;12.55;;;;;;;3.23;100.00;100579.09;4916612;29;20240;-90
2022/03/06 11:06:42;;;;;;;14.68;9.20;;;;;;;3.16;100.00;100579.47;4932909;29;20036;-89